createdAt,value
2022-11-01T00:00:13.003Z,100380.48
2022-11-01T00:02:28.005Z,100390.59
2022-11-01T00:03:30.090Z,100388.49
2022-11-01T00:04:32.083Z,100392.02
2022-11-01T00:05:34.226Z,100392.02
2022-11-01T00:06:36.604Z,100384.94
2022-11-01T00:07:39.583Z,100385.81
2022-11-01T00:08:43.759Z,100381.41
2022-11-01T00:09:47.121Z,100385.81
2022-11-01T00:10:50.101Z,100381.41
2022-11-01T00:11:52.390Z,100377.81
2022-11-01T00:12:55.385Z,100375.14
2022-11-01T00:13:58.093Z,100374.25
2022-11-01T00:15:00.389Z,100376.92
2022-11-01T00:16:02.738Z,100380.48
2022-11-01T00:17:05.446Z,100378.75
2022-11-01T00:18:08.208Z,100386.76
2022-11-01T00:19:10.659Z,100383.23
2022-11-01T00:20:14.411Z,100386.76
2022-11-01T00:21:17.000Z,100392.95
2022-11-01T00:22:19.095Z,100385.81
2022-11-01T00:23:21.695Z,100385.91
2022-11-01T00:24:23.684Z,100380.56
2022-11-01T00:25:26.227Z,100382.35
2022-11-01T00:26:28.484Z,100382.35
2022-11-01T00:27:30.561Z,100376.16
2022-11-01T00:28:33.074Z,100384.17
2022-11-01T00:29:35.729Z,100385.02
2022-11-01T00:30:38.637Z,100382.35
2022-11-01T00:31:41.873Z,100379.69
2022-11-01T00:32:44.007Z,100380.65
2022-11-01T00:33:46.278Z,100375.22
2022-11-01T00:34:48.367Z,100379.69
2022-11-01T00:35:51.625Z,100377.89
2022-11-01T00:36:53.893Z,100373.48
2022-11-01T00:37:55.990Z,100379.69
2022-11-01T00:38:58.404Z,100374.42
2022-11-01T00:40:00.573Z,100371.76
2022-11-01T00:41:04.656Z,100377.09
2022-11-01T00:42:07.194Z,100385.11
2022-11-01T00:43:10.695Z,100372.64
2022-11-01T00:44:13.403Z,100374.42
2022-11-01T00:45:15.927Z,100377.09
2022-11-01T00:46:20.219Z,100377.09
2022-11-01T00:47:23.341Z,100378.92
2022-11-01T00:48:25.689Z,100379.77
2022-11-01T00:49:28.455Z,100379.85
2022-11-01T00:50:31.270Z,100382.44
2022-11-01T00:51:33.395Z,100382.52
2022-11-01T00:52:36.372Z,100378.06
2022-11-01T00:53:38.550Z,100379.85
2022-11-01T00:54:41.450Z,100382.52
2022-11-01T00:55:43.557Z,100381.67
2022-11-01T00:56:45.744Z,100382.61
2022-11-01T00:57:47.930Z,100383.46
2022-11-01T00:58:50.963Z,100385.28
2022-11-01T01:00:55.515Z,100381.67
2022-11-01T01:01:57.746Z,100383.41
2022-11-01T01:03:01.223Z,100374.59
2022-11-01T01:04:05.698Z,100380.79
2022-11-01T01:05:09.428Z,100379.09
2022-11-01T01:06:12.728Z,100385.28
2022-11-01T01:07:14.827Z,100383.46
2022-11-01T01:08:17.038Z,100388.80
2022-11-01T01:09:19.149Z,100383.46
2022-11-01T01:10:22.359Z,100379.09
2022-11-01T01:11:24.486Z,100381.76
2022-11-01T01:12:26.906Z,100382.61
2022-11-01T01:13:28.934Z,100379.09
2022-11-01T01:14:32.460Z,100372.02
2022-11-01T01:15:34.995Z,100381.76
2022-11-01T01:16:37.213Z,100375.53
2022-11-01T01:17:40.316Z,100377.36
2022-11-01T01:18:42.581Z,100380.02
2022-11-01T01:19:44.767Z,100380.88
2022-11-01T01:20:47.074Z,100385.28
2022-11-01T01:21:49.157Z,100386.22
2022-11-01T01:22:51.244Z,100383.55
2022-11-01T01:23:53.257Z,100381.76
2022-11-01T01:24:55.809Z,100371.93
2022-11-01T01:25:58.008Z,100376.42
2022-11-01T01:27:00.854Z,100377.36
2022-11-01T01:28:04.912Z,100378.20
2022-11-01T01:29:08.158Z,100372.86
2022-11-01T01:30:11.478Z,100380.02
2022-11-01T01:31:13.456Z,100380.02
2022-11-01T01:32:18.556Z,100380.11
2022-11-01T01:33:20.569Z,100378.30
2022-11-01T01:34:22.675Z,100374.77
2022-11-01T01:35:24.766Z,100380.11
2022-11-01T01:36:26.961Z,100380.96
2022-11-01T01:37:29.062Z,100376.56
2022-11-01T01:38:31.364Z,100376.56
2022-11-01T01:39:34.077Z,100380.11
2022-11-01T01:40:36.327Z,100373.03
2022-11-01T01:41:38.428Z,100375.70
2022-11-01T01:42:41.810Z,100379.23
2022-11-01T01:43:45.795Z,100376.56
2022-11-01T01:44:54.380Z,100384.56
2022-11-01T01:45:57.923Z,100373.89
2022-11-01T01:47:01.337Z,100371.22
2022-11-01T01:48:20.942Z,100373.89
2022-11-01T01:49:25.324Z,100373.03
2022-11-01T01:50:34.422Z,100374.86
2022-11-01T01:51:36.581Z,100372.19
2022-11-01T01:53:00.536Z,100369.52
2022-11-01T01:54:03.249Z,100367.78
2022-11-01T01:55:07.919Z,100371.39
2022-11-01T01:57:25.886Z,100365.56
2022-11-01T02:00:03.784Z,100372.73
2022-11-01T02:01:07.989Z,100375.96
2022-11-01T02:02:11.128Z,100376.90
2022-11-01T02:03:13.892Z,100377.75
2022-11-01T02:04:25.544Z,100380.42
2022-11-01T02:06:42.507Z,100371.84
2022-11-01T02:07:44.883Z,100375.08
2022-11-01T02:08:49.870Z,100378.63
2022-11-01T02:09:52.335Z,100383.09
2022-11-01T02:11:00.249Z,100380.42
2022-11-01T02:12:02.862Z,100378.63
2022-11-01T02:13:13.014Z,100386.64
2022-11-01T02:14:16.325Z,100385.70
2022-11-01T02:15:18.886Z,100392.83
2022-11-01T02:16:37.246Z,100391.05
2022-11-01T02:19:45.838Z,100388.75
2022-11-01T02:21:25.745Z,100392.83
2022-11-01T02:22:38.637Z,100392.92
2022-11-01T02:24:00.767Z,100396.52
2022-11-01T02:25:31.019Z,100388.59
2022-11-01T02:26:59.961Z,100392.29
2022-11-01T02:28:15.041Z,100388.85
2022-11-01T02:29:36.233Z,100388.05
2022-11-01T02:30:52.877Z,100389.87
2022-11-01T02:31:58.902Z,100391.77
2022-11-01T02:33:14.380Z,100391.77
2022-11-01T02:34:19.707Z,100386.66
2022-11-01T02:35:25.615Z,100383.91
2022-11-01T02:36:31.641Z,100393.64
2022-11-01T02:37:37.544Z,100388.30
2022-11-01T02:40:11.691Z,100395.67
2022-11-01T02:41:34.095Z,100393.56
2022-11-01T02:42:38.796Z,100404.16
2022-11-01T02:43:59.574Z,100402.45
2022-11-01T02:45:14.672Z,100400.63
2022-11-01T02:46:18.057Z,100404.16
2022-11-01T02:47:21.195Z,100405.12
2022-11-01T02:48:23.248Z,100409.49
2022-11-01T02:50:44.820Z,100397.41
2022-11-01T02:51:47.693Z,100405.03
2022-11-01T02:52:49.764Z,100402.37
2022-11-01T02:53:51.844Z,100413.89
2022-11-01T02:55:01.082Z,100416.48
2022-11-01T02:56:03.213Z,100408.47
2022-11-01T02:57:32.090Z,100415.55
2022-11-01T02:58:34.217Z,100403.05
2022-11-01T02:59:44.269Z,100412.80
2022-11-01T03:00:46.570Z,100410.20
2022-11-01T03:03:19.318Z,100416.69
2022-11-01T03:04:21.377Z,100411.94
2022-11-01T03:05:31.946Z,100411.94
2022-11-01T03:06:38.188Z,100415.55
2022-11-01T03:07:42.051Z,100412.00
2022-11-01T03:08:45.969Z,100418.22
2022-11-01T03:09:48.491Z,100419.06
2022-11-01T03:10:54.477Z,100410.20
2022-11-01T03:13:40.968Z,100412.23
2022-11-01T03:14:46.840Z,100414.61
2022-11-01T03:15:52.764Z,100416.31
2022-11-01T03:18:28.389Z,100409.56
2022-11-01T03:19:43.100Z,100409.27
2022-11-01T03:20:51.573Z,100417.20
2022-11-01T03:22:12.074Z,100415.46
2022-11-01T03:24:38.559Z,100406.89
2022-11-01T03:25:44.408Z,100406.61
2022-11-01T03:26:49.489Z,100412.80
2022-11-01T03:27:52.986Z,100398.59
2022-11-01T03:28:58.238Z,100402.20
2022-11-01T03:30:06.001Z,100402.11
2022-11-01T03:31:17.381Z,100403.05
2022-11-01T03:32:20.651Z,100403.94
2022-11-01T03:33:24.394Z,100407.45
2022-11-01T03:34:27.845Z,100403.94
2022-11-01T03:35:36.589Z,100402.11
2022-11-01T03:36:40.937Z,100401.18
2022-11-01T03:37:43.642Z,100403.85
2022-11-01T03:38:55.504Z,100403.85
2022-11-01T03:39:57.560Z,100407.38
2022-11-01T03:41:04.054Z,100408.22
2022-11-01T03:42:08.658Z,100404.70
2022-11-01T03:43:12.253Z,100409.11
2022-11-01T03:44:14.475Z,100406.44
2022-11-01T03:45:18.695Z,100402.83
2022-11-01T03:46:21.117Z,100409.95
2022-11-01T03:47:23.722Z,100409.11
2022-11-01T03:48:26.526Z,100403.69
2022-11-01T03:49:28.509Z,100404.62
2022-11-01T03:50:31.116Z,100401.02
2022-11-01T03:51:33.111Z,100409.87
2022-11-01T03:52:36.184Z,100410.75
2022-11-01T03:53:38.874Z,100406.27
2022-11-01T03:54:41.438Z,100410.67
2022-11-01T03:55:45.998Z,100410.59
2022-11-01T03:56:48.691Z,100417.66
2022-11-01T03:59:05.620Z,100403.63
2022-11-01T04:00:10.821Z,100406.81
2022-11-01T04:01:16.570Z,100407.66
2022-11-01T04:02:18.933Z,100416.55
2022-11-01T04:03:21.970Z,100409.31
2022-11-01T04:04:24.539Z,100411.13
2022-11-01T04:05:28.061Z,100407.49
2022-11-01T04:06:31.497Z,100411.05
2022-11-01T04:07:34.386Z,100416.30
2022-11-01T04:08:36.858Z,100408.29
2022-11-01T04:09:38.954Z,100410.02
2022-11-01T04:10:41.670Z,100407.36
2022-11-01T04:11:43.667Z,100417.06
2022-11-01T04:12:46.552Z,100409.05
2022-11-01T04:13:48.663Z,100422.33
2022-11-01T04:14:51.133Z,100406.30
2022-11-01T04:15:53.300Z,100415.20
2022-11-01T04:16:55.470Z,100409.86
2022-11-01T04:18:16.885Z,100410.70
2022-11-01T04:19:19.711Z,100410.70
2022-11-01T04:20:22.913Z,100408.92
2022-11-01T04:21:25.338Z,100416.05
2022-11-01T04:22:28.494Z,100414.26
2022-11-01T04:23:31.877Z,100415.11
2022-11-01T04:24:34.631Z,100423.97
2022-11-01T04:25:36.736Z,100419.59
2022-11-01T04:26:38.921Z,100419.52
2022-11-01T04:27:41.815Z,100419.59
2022-11-01T04:28:44.899Z,100419.59
2022-11-01T04:29:47.745Z,100418.63
2022-11-01T04:30:49.927Z,100425.79
2022-11-01T04:31:52.639Z,100426.64
2022-11-01T04:32:54.738Z,100421.30
2022-11-01T04:33:57.242Z,100418.63
2022-11-01T04:34:59.251Z,100423.97
2022-11-01T04:36:05.936Z,100424.86
2022-11-01T04:37:08.250Z,100421.30
2022-11-01T04:38:10.872Z,100423.13
2022-11-01T04:39:13.500Z,100425.79
2022-11-01T04:40:15.991Z,100425.79
2022-11-01T04:41:18.702Z,100425.79
2022-11-01T04:42:20.781Z,100425.88
2022-11-01T04:43:22.940Z,100422.33
2022-11-01T04:44:26.058Z,100428.55
2022-11-01T04:45:28.099Z,100425.88
2022-11-01T04:46:30.288Z,100428.55
2022-11-01T04:47:33.366Z,100423.30
2022-11-01T04:48:35.375Z,100428.55
2022-11-01T04:49:37.352Z,100438.34
2022-11-01T04:50:40.366Z,100432.16
2022-11-01T04:51:42.532Z,100435.67
2022-11-01T04:52:45.164Z,100434.83
2022-11-01T04:53:47.723Z,100437.58
2022-11-01T04:54:49.799Z,100434.91
2022-11-01T04:55:52.669Z,100438.43
2022-11-01T04:56:55.312Z,100439.31
2022-11-01T04:57:58.397Z,100438.43
2022-11-01T04:59:01.754Z,100438.43
2022-11-01T05:00:05.298Z,100440.25
2022-11-01T05:01:07.746Z,100435.77
2022-11-01T05:02:10.334Z,100442.92
2022-11-01T05:03:12.576Z,100440.25
2022-11-01T05:04:15.381Z,100437.58
2022-11-01T05:05:17.707Z,100441.10
2022-11-01T05:06:20.540Z,100436.73
2022-11-01T05:07:22.690Z,100437.58
2022-11-01T05:08:26.179Z,100443.86
2022-11-01T05:09:41.827Z,100446.44
2022-11-01T05:10:44.074Z,100436.73
2022-11-01T05:11:47.234Z,100434.14
2022-11-01T05:12:49.363Z,100437.66
2022-11-01T05:13:52.403Z,100430.59
2022-11-01T05:14:56.786Z,100436.81
2022-11-01T05:16:18.911Z,100433.26
2022-11-01T05:17:08.129Z,100433.17
2022-11-01T05:18:10.301Z,100430.59
2022-11-01T05:19:12.413Z,100427.07
2022-11-01T05:20:14.483Z,100423.52
2022-11-01T05:21:17.598Z,100426.13
2022-11-01T05:22:20.833Z,100429.73
2022-11-01T05:23:22.877Z,100426.19
2022-11-01T05:24:25.647Z,100427.07
2022-11-01T05:25:28.085Z,100427.07
2022-11-01T05:26:30.294Z,100430.59
2022-11-01T05:27:32.431Z,100427.92
2022-11-01T05:28:34.413Z,100428.00
2022-11-01T05:29:36.401Z,100427.92
2022-11-01T05:30:38.779Z,100431.47
2022-11-01T05:31:41.842Z,100434.20
2022-11-01T05:32:43.994Z,100434.20
2022-11-01T05:33:46.068Z,100436.02
2022-11-01T05:34:48.321Z,100435.93
2022-11-01T05:35:50.400Z,100444.88
2022-11-01T05:36:55.187Z,100442.20
2022-11-01T05:37:57.457Z,100444.88
2022-11-01T05:38:59.567Z,100438.59
2022-11-01T05:40:03.165Z,100447.55
2022-11-01T05:41:06.071Z,100445.76
2022-11-01T05:42:08.482Z,100449.28
2022-11-01T05:43:10.992Z,100450.22
2022-11-01T05:44:12.984Z,100448.43
2022-11-01T05:45:15.474Z,100448.34
2022-11-01T05:46:18.010Z,100444.83
2022-11-01T05:47:20.118Z,100449.20
2022-11-01T05:48:22.187Z,100446.44
2022-11-01T05:49:24.580Z,100449.11
2022-11-01T05:50:27.826Z,100444.66
2022-11-01T05:51:29.959Z,100450.84
2022-11-01T05:52:32.075Z,100456.19
2022-11-01T05:53:35.268Z,100456.19
2022-11-01T05:54:37.233Z,100441.10
2022-11-01T05:55:39.220Z,100450.00
2022-11-01T05:56:44.336Z,100445.50
2022-11-01T05:58:51.808Z,100449.11
2022-11-01T05:59:53.952Z,100450.00
2022-11-01T06:01:00.230Z,100448.18
2022-11-01T06:02:02.491Z,100454.45
2022-11-01T06:03:07.014Z,100457.13
2022-11-01T06:04:09.354Z,100458.86
2022-11-01T06:05:11.353Z,100451.78
2022-11-01T06:06:14.214Z,100453.52
2022-11-01T06:07:16.391Z,100442.84
2022-11-01T06:08:18.675Z,100445.50
2022-11-01T06:09:21.278Z,100446.36
2022-11-01T06:10:23.463Z,100444.48
2022-11-01T06:11:26.556Z,100447.16
2022-11-01T06:12:29.025Z,100448.01
2022-11-01T06:13:31.621Z,100452.41
2022-11-01T06:15:38.885Z,100451.39
2022-11-01T06:16:40.873Z,100450.54
2022-11-01T06:17:43.345Z,100445.20
2022-11-01T06:18:46.273Z,100452.24
2022-11-01T06:19:48.677Z,100450.54
2022-11-01T06:20:51.514Z,100447.78
2022-11-01T06:21:53.515Z,100448.64
2022-11-01T06:22:56.356Z,100449.48
2022-11-01T06:23:58.535Z,100447.78
2022-11-01T06:25:00.634Z,100448.64
2022-11-01T06:26:03.362Z,100446.81
2022-11-01T06:27:09.949Z,100453.05
2022-11-01T06:28:10.286Z,100450.37
2022-11-01T06:29:13.227Z,100452.96
2022-11-01T06:30:15.677Z,100449.44
2022-11-01T06:31:18.508Z,100447.62
2022-11-01T06:32:21.368Z,100446.77
2022-11-01T06:33:23.378Z,100454.69
2022-11-01T06:34:25.490Z,100437.70
2022-11-01T11:09:46.751Z,100331.48
2022-11-01T11:10:49.348Z,100337.10
2022-11-01T11:13:06.978Z,100334.23
2022-11-01T11:14:09.390Z,100336.08
2022-11-01T11:15:18.477Z,100334.70
2022-11-01T11:17:38.743Z,100333.09
2022-11-01T11:18:40.815Z,100328.11
2022-11-01T11:19:42.987Z,100328.11
2022-11-01T11:20:50.518Z,100325.89
2022-11-01T11:21:53.576Z,100326.25
2022-11-01T11:22:56.565Z,100320.36
2022-11-01T11:23:58.763Z,100329.63
2022-11-01T11:25:01.181Z,100325.58
2022-11-01T11:26:17.121Z,100325.23
2022-11-01T11:27:22.246Z,100326.58
2022-11-01T11:29:53.698Z,100313.66
2022-11-01T11:30:58.089Z,100321.02
2022-11-01T11:32:00.197Z,100316.17
2022-11-01T11:33:03.154Z,100316.81
2022-11-01T11:35:33.789Z,100318.24
2022-11-01T11:36:38.406Z,100301.94
2022-11-01T11:37:40.534Z,100319.89
2022-11-01T11:38:47.321Z,100319.89
2022-11-01T11:40:01.608Z,100314.39
2022-11-01T11:41:07.895Z,100317.66
2022-11-01T11:42:18.722Z,100323.64
2022-11-01T11:43:26.348Z,100319.10
2022-11-01T11:46:07.998Z,100317.23
2022-11-01T11:47:24.922Z,100323.83
2022-11-01T11:48:27.668Z,100316.59
2022-11-01T11:49:29.725Z,100323.50
2022-11-01T11:50:32.246Z,100327.73
2022-11-01T11:51:35.519Z,100324.98
2022-11-01T11:52:38.696Z,100326.55
2022-11-01T11:53:43.262Z,100327.26
2022-11-01T11:54:45.917Z,100330.69
2022-11-01T11:55:53.223Z,100332.25
2022-11-01T11:57:09.592Z,100332.97
2022-11-01T11:58:24.444Z,100328.30
2022-11-01T11:59:29.408Z,100332.63
2022-11-01T12:00:34.272Z,100329.78
2022-11-01T12:01:36.941Z,100335.91
2022-11-01T12:02:39.884Z,100330.41
2022-11-01T12:03:47.799Z,100327.65
2022-11-01T12:04:54.992Z,100332.81
2022-11-01T12:06:02.879Z,100337.22
2022-11-01T12:07:05.495Z,100334.38
2022-11-01T12:08:11.335Z,100329.83
2022-11-01T12:09:37.050Z,100331.53
2022-11-01T12:10:39.997Z,100331.38
2022-11-01T12:11:45.200Z,100340.16
2022-11-01T12:12:50.308Z,100331.13
2022-11-01T12:14:02.069Z,100331.97
2022-11-01T12:15:08.960Z,100327.42
2022-11-01T12:16:17.296Z,100330.01
2022-11-01T12:18:51.660Z,100327.52
2022-11-01T12:20:02.434Z,100336.91
2022-11-01T12:21:04.672Z,100318.70
2022-11-01T12:22:08.481Z,100332.33
2022-11-01T12:23:16.881Z,100330.54
2022-11-01T12:24:26.877Z,100331.30
2022-11-01T12:25:29.932Z,100332.19
2022-11-01T12:26:33.007Z,100334.77
2022-11-01T12:27:35.316Z,100332.00
2022-11-01T12:28:40.262Z,100333.73
2022-11-01T12:29:45.786Z,100333.73
2022-11-01T12:30:49.488Z,100337.17
2022-11-01T12:31:52.244Z,100332.67
2022-11-01T12:33:00.381Z,100332.67
2022-11-01T12:35:30.259Z,100330.15
2022-11-01T12:36:42.197Z,100331.59
2022-11-01T12:38:15.604Z,100338.67
2022-11-01T12:40:54.696Z,100334.46
2022-11-01T12:41:57.826Z,100336.88
2022-11-01T12:43:15.337Z,100335.91
2022-11-01T12:44:36.191Z,100344.89
2022-11-01T12:47:14.089Z,100346.80
2022-11-01T12:49:40.723Z,100339.63
2022-11-01T12:50:51.311Z,100333.09
2022-11-01T12:51:55.430Z,100336.61
2022-11-01T12:53:04.852Z,100333.84
2022-11-01T12:54:20.252Z,100330.23
2022-11-01T12:55:32.440Z,100333.76
2022-11-01T12:56:35.666Z,100337.22
2022-11-01T12:57:38.007Z,100335.40
2022-11-01T12:58:42.035Z,100337.98
2022-11-01T12:59:45.611Z,100330.81
2022-11-01T13:01:04.647Z,100314.97
2022-11-01T13:02:27.379Z,100314.97
2022-11-01T13:03:51.782Z,100327.99
2022-11-01T13:05:01.418Z,100331.52
2022-11-01T13:06:27.528Z,100324.34
2022-11-01T13:07:54.529Z,100325.32
2022-11-01T13:09:07.138Z,100324.34
2022-11-01T13:10:34.738Z,100326.17
2022-11-01T13:12:00.315Z,100320.83
2022-11-01T13:15:03.463Z,100319.43
2022-11-01T13:17:54.453Z,100310.56
2022-11-01T13:19:06.597Z,100320.92
2022-11-01T13:20:43.688Z,100317.39
2022-11-01T13:22:04.951Z,100316.52
2022-11-01T13:23:39.702Z,100322.74
2022-11-01T13:24:45.593Z,100313.75
2022-11-01T13:25:51.068Z,100316.42
2022-11-01T13:27:04.945Z,100318.25
2022-11-01T13:29:51.985Z,100306.95
2022-11-01T13:32:31.898Z,100309.53
2022-11-01T13:35:08.415Z,100301.42
2022-11-01T13:38:07.634Z,100297.80
2022-11-01T13:39:16.764Z,100298.23
2022-11-01T13:40:31.837Z,100299.17
2022-11-01T13:43:05.434Z,100301.94
2022-11-01T13:45:39.245Z,100293.03
2022-11-01T13:47:11.102Z,100292.70
2022-11-01T13:48:35.806Z,100295.28
2022-11-01T13:49:44.988Z,100295.22
2022-11-01T13:50:51.490Z,100296.16
2022-11-01T13:52:09.014Z,100289.00
2022-11-01T13:53:18.576Z,100287.20
2022-11-01T13:54:44.183Z,100293.40
2022-11-01T13:56:05.486Z,100286.23
2022-11-01T13:57:10.723Z,100284.44
2022-11-01T13:58:19.024Z,100285.29
2022-11-01T13:59:34.093Z,100275.54
2022-11-01T14:00:43.613Z,100280.89
2022-11-01T14:01:45.918Z,100279.09
2022-11-01T14:04:15.439Z,100278.38
2022-11-01T14:05:17.938Z,100277.17
2022-11-01T14:06:26.005Z,100275.36
2022-11-01T14:08:47.314Z,100269.20
2022-11-01T14:09:52.354Z,100274.23
2022-11-01T14:10:54.685Z,100276.84
2022-11-01T14:12:08.525Z,100275.02
2022-11-01T14:13:16.513Z,100272.25
2022-11-01T14:14:34.718Z,100270.42
2022-11-01T14:17:23.286Z,100269.70
2022-11-01T14:18:26.643Z,100269.38
2022-11-01T14:19:29.454Z,100265.86
2022-11-01T14:20:42.885Z,100266.71
2022-11-01T14:21:46.215Z,100268.53
2022-11-01T14:22:48.364Z,100265.77
2022-11-01T14:23:52.530Z,100263.09
2022-11-01T14:25:00.084Z,100256.80
2022-11-01T14:26:23.052Z,100260.33
2022-11-01T14:27:33.944Z,100259.39
2022-11-01T14:28:44.487Z,100260.23
2022-11-01T14:29:50.925Z,100250.48
2022-11-01T14:30:55.132Z,100254.03
2022-11-01T14:31:57.258Z,100254.89
2022-11-01T14:33:00.519Z,100252.21
2022-11-01T14:34:08.641Z,100252.21
2022-11-01T14:35:14.804Z,100249.44
2022-11-01T14:36:20.461Z,100245.92
2022-11-01T14:37:23.271Z,100245.83
2022-11-01T14:38:44.963Z,100248.50
2022-11-01T14:40:02.386Z,100248.50
2022-11-01T14:41:04.667Z,100257.31
2022-11-01T19:36:46.893Z,100100.86
2022-11-01T19:37:52.971Z,100102.91
2022-11-01T19:38:55.267Z,100098.69
2022-11-01T19:39:57.574Z,100100.58
2022-11-01T19:40:59.988Z,100102.50
2022-11-01T19:42:15.391Z,100095.59
2022-11-01T19:43:22.887Z,100099.19
2022-11-01T19:44:26.234Z,100091.22
2022-11-01T19:45:31.965Z,100091.25
2022-11-01T19:46:34.473Z,100098.41
2022-11-01T19:47:40.723Z,100099.39
2022-11-01T19:48:42.956Z,100092.45
2022-11-01T19:49:45.105Z,100093.41
2022-11-01T19:50:48.461Z,100092.73
2022-11-01T19:52:03.999Z,100100.12
2022-11-01T19:53:21.554Z,100100.28
2022-11-01T19:54:23.864Z,100099.58
2022-11-01T19:55:38.664Z,100095.34
2022-11-01T19:56:41.025Z,100090.33
2022-11-01T19:57:45.005Z,100095.09
2022-11-01T19:58:53.868Z,100087.52
2022-11-01T20:01:38.341Z,100090.36
2022-11-01T20:02:42.232Z,100079.08
2022-11-01T20:06:35.293Z,100073.86
2022-11-01T20:07:38.322Z,100071.64
2022-11-01T20:08:40.677Z,100073.17
2022-11-01T20:09:42.907Z,100068.51
2022-11-01T20:10:45.149Z,100078.91
2022-11-01T20:11:48.411Z,100078.70
2022-11-01T20:12:51.857Z,100078.51
2022-11-01T20:13:54.195Z,100088.06
2022-11-01T20:14:56.491Z,100079.87
2022-11-01T20:15:59.515Z,100090.37
2022-11-01T20:17:02.219Z,100082.24
2022-11-01T20:18:05.046Z,100085.66
2022-11-01T20:19:09.791Z,100092.67
2022-11-01T20:20:13.109Z,100092.67
2022-11-01T20:21:15.528Z,100079.57
2022-11-01T20:22:18.360Z,100079.57
2022-11-01T20:23:26.184Z,100096.98
2022-11-01T20:24:25.490Z,100104.91
2022-11-01T20:25:27.687Z,100096.12
2022-11-01T20:26:31.425Z,100100.53
2022-11-01T20:27:34.147Z,100101.37
2022-11-01T20:28:36.374Z,100097.86
2022-11-01T20:29:39.862Z,100104.05
2022-11-01T20:30:42.110Z,100091.02
2022-11-01T20:31:44.615Z,100091.02
2022-11-01T20:32:47.752Z,100101.37
2022-11-01T20:33:50.040Z,100088.95
2022-11-01T20:34:53.276Z,100094.30
2022-11-01T20:35:56.099Z,100096.98
2022-11-01T20:38:03.443Z,100094.09
2022-11-01T20:39:09.106Z,100099.39
2022-11-01T20:40:11.566Z,100101.08
2022-11-01T20:41:14.505Z,100099.28
2022-11-01T20:42:17.272Z,100102.80
2022-11-01T20:43:20.481Z,100103.66
2022-11-01T20:44:22.624Z,100104.63
2022-11-01T20:45:25.823Z,100103.75
2022-11-01T20:46:28.970Z,100100.12
2022-11-01T20:47:32.403Z,100102.80
2022-11-01T20:48:34.833Z,100100.88
2022-11-01T20:49:37.805Z,100092.78
2022-11-01T20:50:40.159Z,100093.63
2022-11-01T20:51:42.193Z,100090.86
2022-11-01T20:52:44.594Z,100094.37
2022-11-01T20:53:47.553Z,100081.98
2022-11-01T20:54:50.838Z,100097.05
2022-11-01T20:55:54.765Z,100084.55
2022-11-01T20:57:00.146Z,100082.73
2022-11-01T20:58:02.748Z,100084.45
2022-11-01T20:59:05.360Z,100080.05
2022-11-01T21:00:09.234Z,100078.25
2022-11-01T21:01:17.824Z,100079.95
2022-11-01T21:02:21.020Z,100073.75
2022-11-01T21:03:27.320Z,100074.59
2022-11-01T21:04:29.390Z,100076.42
2022-11-01T21:05:31.498Z,100066.67
2022-11-01T21:06:34.863Z,100062.20
2022-11-01T21:07:43.668Z,100072.97
2022-11-01T21:08:47.968Z,100064.09
2022-11-01T21:09:51.463Z,100049.88
2022-11-01T21:10:56.369Z,100052.55
2022-11-01T21:11:58.778Z,100047.20
2022-11-01T21:14:19.792Z,100049.26
2022-11-01T21:15:38.349Z,100046.31
2022-11-01T21:16:40.742Z,100046.42
2022-11-01T21:17:43.063Z,100044.70
2022-11-01T21:18:45.258Z,100044.70
2022-11-01T21:21:17.085Z,100042.39
2022-11-01T21:22:36.113Z,100043.95
2022-11-01T21:23:38.183Z,100047.58
2022-11-01T21:24:42.520Z,100052.08
2022-11-01T21:25:44.906Z,100050.34
2022-11-01T21:26:49.759Z,100045.00
2022-11-01T21:27:52.617Z,100042.33
2022-11-01T21:30:15.612Z,100039.81
2022-11-01T21:31:29.898Z,100038.70
2022-11-01T21:32:34.896Z,100024.48
2022-11-01T21:33:38.927Z,100026.27
2022-11-01T21:34:41.187Z,100028.95
2022-11-01T21:35:44.058Z,100019.20
2022-11-01T21:36:47.132Z,100017.41
2022-11-01T21:37:54.189Z,100010.33
2022-11-01T21:40:05.965Z,100014.83
2022-11-01T21:42:48.123Z,100022.14
2022-11-01T21:43:52.466Z,100035.25
2022-11-01T21:44:55.453Z,100038.02
2022-11-01T21:45:58.373Z,100043.38
2022-11-01T21:47:20.650Z,100039.01
2022-11-01T21:49:39.004Z,100040.22
2022-11-01T21:50:42.219Z,100042.62
2022-11-01T21:51:44.258Z,100044.42
2022-11-01T21:52:46.372Z,100044.53
2022-11-01T21:53:48.371Z,100049.00
2022-11-01T21:54:50.471Z,100047.20
2022-11-01T21:55:52.699Z,100041.85
2022-11-01T21:56:55.646Z,100043.65
2022-11-01T21:58:00.711Z,100043.75
2022-11-01T21:59:03.009Z,100041.92
2022-11-01T22:00:06.406Z,100041.08
2022-11-01T22:01:08.792Z,100040.20
2022-11-01T22:02:12.563Z,100042.02
2022-11-01T22:03:15.267Z,100039.34
2022-11-01T22:04:18.444Z,100032.17
2022-11-01T22:05:21.550Z,100028.65
2022-11-01T22:06:23.811Z,100020.63
2022-11-01T22:07:26.200Z,100018.90
2022-11-01T22:08:28.829Z,100020.63
2022-11-01T22:09:32.591Z,100016.23
2022-11-01T22:10:36.735Z,100002.00
2022-11-01T22:11:41.271Z,99997.61
2022-11-01T22:12:43.616Z,99998.38
2022-11-01T22:13:45.743Z,100002.00
2022-11-01T22:14:48.066Z,99994.83
2022-11-01T22:15:50.180Z,99999.23
2022-11-01T22:16:52.402Z,99995.61
2022-11-01T22:17:54.530Z,99994.73
2022-11-01T22:18:56.548Z,99992.05
2022-11-01T22:19:59.839Z,99984.91
2022-11-01T22:21:02.160Z,99984.91
2022-11-01T22:22:05.537Z,99978.61
2022-11-01T22:23:08.724Z,99978.61
2022-11-01T22:24:10.783Z,99974.11
2022-11-01T22:25:13.124Z,99968.75
2022-11-01T22:26:15.830Z,99980.33
2022-11-01T22:27:17.835Z,99968.69
2022-11-01T22:28:20.623Z,99965.16
2022-11-01T22:29:23.090Z,99960.55
2022-11-01T22:30:25.210Z,99958.77
2022-11-01T22:31:27.313Z,99956.93
2022-11-01T22:32:30.064Z,99948.80
2022-11-01T22:33:32.961Z,99950.53
2022-11-01T22:34:35.129Z,99954.92
2022-11-01T22:35:37.245Z,99960.17
2022-11-01T22:36:39.862Z,99960.17
2022-11-01T22:37:42.072Z,99964.64
2022-11-01T22:38:45.058Z,99954.82
2022-11-01T22:39:52.025Z,99948.59
2022-11-01T22:41:58.216Z,99944.12
2022-11-01T22:43:00.670Z,99944.97
2022-11-01T22:44:14.557Z,99952.25
2022-11-01T22:46:30.137Z,99939.97
2022-11-01T22:47:33.154Z,99924.83
2022-11-01T22:48:35.332Z,99924.83
2022-11-01T22:49:44.683Z,99930.85
2022-11-01T22:50:47.656Z,99927.30
2022-11-01T22:51:52.174Z,99923.77
2022-11-01T22:52:54.756Z,99928.17
2022-11-01T22:53:57.587Z,99921.10
2022-11-01T22:55:03.038Z,99921.10
2022-11-01T22:56:07.735Z,99913.08
2022-11-01T22:57:13.736Z,99912.13
2022-11-01T22:59:50.669Z,99909.77
2022-11-01T23:00:54.846Z,99912.20
2022-11-01T23:02:07.226Z,99917.55
2022-11-01T23:03:28.225Z,99922.05
2022-11-01T23:04:30.279Z,99926.55